sensor_id;sensor_type;location;lat;lon;timestamp;P1;durP1;ratioP1;P2;durP2;ratioP2
52848;SDS011;38714;53.180;5.812;2022-12-11T00:01:33;47.87;;;22.17;;
52848;SDS011;38714;53.180;5.812;2022-12-11T00:03:58;47.10;;;19.50;;
52848;SDS011;38714;53.180;5.812;2022-12-11T00:06:24;41.53;;;21.70;;
52848;SDS011;38714;53.180;5.812;2022-12-11T00:08:50;51.03;;;23.37;;
52848;SDS011;38714;53.180;5.812;2022-12-11T00:11:17;48.27;;;22.27;;
52848;SDS011;38714;53.180;5.812;2022-12-11T00:13:43;54.23;;;22.03;;
52848;SDS011;38714;53.180;5.812;2022-12-11T00:16:08;56.90;;;22.13;;
52848;SDS011;38714;53.180;5.812;2022-12-11T00:18:34;53.97;;;23.43;;
52848;SDS011;38714;53.180;5.812;2022-12-11T00:21:01;76.33;;;25.80;;
52848;SDS011;38714;53.180;5.812;2022-12-11T00:23:28;46.90;;;23.27;;
52848;SDS011;38714;53.180;5.812;2022-12-11T00:25:54;51.83;;;22.83;;
52848;SDS011;38714;53.180;5.812;2022-12-11T00:28:19;49.57;;;21.50;;
52848;SDS011;38714;53.180;5.812;2022-12-11T00:30:46;54.43;;;22.03;;
52848;SDS011;38714;53.180;5.812;2022-12-11T00:33:13;45.27;;;22.03;;
52848;SDS011;38714;53.180;5.812;2022-12-11T00:35:39;52.87;;;24.07;;
52848;SDS011;38714;53.180;5.812;2022-12-11T00:38:06;53.43;;;24.87;;
52848;SDS011;38714;53.180;5.812;2022-12-11T00:40:35;50.23;;;22.90;;
52848;SDS011;38714;53.180;5.812;2022-12-11T00:43:01;50.40;;;25.20;;
52848;SDS011;38714;53.180;5.812;2022-12-11T00:45:27;41.50;;;21.23;;
52848;SDS011;38714;53.180;5.812;2022-12-11T00:47:53;52.30;;;20.13;;
52848;SDS011;38714;53.180;5.812;2022-12-11T00:50:18;64.50;;;23.03;;
52848;SDS011;38714;53.180;5.812;2022-12-11T00:52:44;46.97;;;22.00;;
52848;SDS011;38714;53.180;5.812;2022-12-11T00:55:10;53.90;;;22.80;;
52848;SDS011;38714;53.180;5.812;2022-12-11T00:57:35;45.23;;;21.27;;
52848;SDS011;38714;53.180;5.812;2022-12-11T01:00:01;50.77;;;23.43;;
52848;SDS011;38714;53.180;5.812;2022-12-11T01:02:31;62.43;;;23.57;;
52848;SDS011;38714;53.180;5.812;2022-12-11T01:04:57;60.27;;;25.43;;
52848;SDS011;38714;53.180;5.812;2022-12-11T01:07:22;61.00;;;23.80;;
52848;SDS011;38714;53.180;5.812;2022-12-11T01:09:48;57.13;;;23.37;;
52848;SDS011;38714;53.180;5.812;2022-12-11T01:12:33;48.70;;;20.30;;
52848;SDS011;38714;53.180;5.812;2022-12-11T01:14:58;44.20;;;22.23;;
52848;SDS011;38714;53.180;5.812;2022-12-11T01:17:24;48.83;;;20.77;;
52848;SDS011;38714;53.180;5.812;2022-12-11T01:19:49;40.50;;;20.50;;
52848;SDS011;38714;53.180;5.812;2022-12-11T01:22:18;40.80;;;19.50;;
52848;SDS011;38714;53.180;5.812;2022-12-11T01:24:43;58.70;;;24.60;;
52848;SDS011;38714;53.180;5.812;2022-12-11T01:27:09;55.83;;;23.93;;
52848;SDS011;38714;53.180;5.812;2022-12-11T01:29:35;46.23;;;23.17;;
52848;SDS011;38714;53.180;5.812;2022-12-11T01:32:00;60.60;;;22.47;;
52848;SDS011;38714;53.180;5.812;2022-12-11T01:34:29;43.90;;;21.53;;
52848;SDS011;38714;53.180;5.812;2022-12-11T01:36:56;49.13;;;20.67;;
52848;SDS011;38714;53.180;5.812;2022-12-11T01:39:22;52.97;;;23.07;;
52848;SDS011;38714;53.180;5.812;2022-12-11T01:41:47;42.17;;;21.73;;
52848;SDS011;38714;53.180;5.812;2022-12-11T01:46:38;61.63;;;21.33;;
52848;SDS011;38714;53.180;5.812;2022-12-11T01:49:06;39.60;;;19.13;;
52848;SDS011;38714;53.180;5.812;2022-12-11T01:51:39;49.17;;;22.33;;
52848;SDS011;38714;53.180;5.812;2022-12-11T01:54:20;48.30;;;20.83;;
52848;SDS011;38714;53.180;5.812;2022-12-11T01:56:49;43.93;;;23.80;;
52848;SDS011;38714;53.180;5.812;2022-12-11T01:59:18;57.83;;;23.77;;
52848;SDS011;38714;53.180;5.812;2022-12-11T02:02:01;46.83;;;20.63;;
52848;SDS011;38714;53.180;5.812;2022-12-11T02:04:32;51.53;;;23.23;;
52848;SDS011;38714;53.180;5.812;2022-12-11T02:06:59;44.07;;;19.27;;
52848;SDS011;38714;53.180;5.812;2022-12-11T02:09:26;47.23;;;22.00;;
52848;SDS011;38714;53.180;5.812;2022-12-11T02:20:23;36.87;;;21.03;;
52848;SDS011;38714;53.180;5.812;2022-12-11T02:22:58;42.10;;;20.57;;
52848;SDS011;38714;53.180;5.812;2022-12-11T02:31:26;40.20;;;21.80;;
52848;SDS011;38714;53.180;5.812;2022-12-11T02:36:37;38.70;;;22.83;;
52848;SDS011;38714;53.180;5.812;2022-12-11T02:39:06;40.83;;;23.57;;
52848;SDS011;38714;53.180;5.812;2022-12-11T02:41:34;40.33;;;22.67;;
52848;SDS011;38714;53.180;5.812;2022-12-11T02:44:01;45.20;;;23.87;;
52848;SDS011;38714;53.180;5.812;2022-12-11T02:46:28;45.67;;;22.93;;
52848;SDS011;38714;53.180;5.812;2022-12-11T02:48:57;47.43;;;23.57;;
52848;SDS011;38714;53.180;5.812;2022-12-11T02:51:24;50.53;;;26.07;;
52848;SDS011;38714;53.180;5.812;2022-12-11T02:53:55;59.03;;;24.63;;
52848;SDS011;38714;53.180;5.812;2022-12-11T02:56:28;62.13;;;28.30;;
52848;SDS011;38714;53.180;5.812;2022-12-11T02:59:02;55.03;;;24.03;;
52848;SDS011;38714;53.180;5.812;2022-12-11T03:01:32;52.73;;;26.17;;
52848;SDS011;38714;53.180;5.812;2022-12-11T03:03:58;51.07;;;27.03;;
52848;SDS011;38714;53.180;5.812;2022-12-11T03:06:25;48.17;;;22.53;;
52848;SDS011;38714;53.180;5.812;2022-12-11T03:08:55;57.83;;;27.20;;
52848;SDS011;38714;53.180;5.812;2022-12-11T03:11:21;65.13;;;29.47;;
52848;SDS011;38714;53.180;5.812;2022-12-11T03:13:47;72.50;;;30.20;;
52848;SDS011;38714;53.180;5.812;2022-12-11T03:21:32;71.10;;;26.80;;
52848;SDS011;38714;53.180;5.812;2022-12-11T03:24:20;60.17;;;26.23;;
52848;SDS011;38714;53.180;5.812;2022-12-11T03:26:53;60.73;;;27.83;;
52848;SDS011;38714;53.180;5.812;2022-12-11T03:29:23;45.07;;;24.73;;
52848;SDS011;38714;53.180;5.812;2022-12-11T03:31:56;70.73;;;28.73;;
52848;SDS011;38714;53.180;5.812;2022-12-11T03:34:37;56.30;;;24.63;;
52848;SDS011;38714;53.180;5.812;2022-12-11T03:37:15;63.80;;;27.07;;
52848;SDS011;38714;53.180;5.812;2022-12-11T03:39:43;64.97;;;27.37;;
52848;SDS011;38714;53.180;5.812;2022-12-11T03:42:15;49.58;;;25.73;;
52848;SDS011;38714;53.180;5.812;2022-12-11T03:44:45;67.97;;;31.47;;
52848;SDS011;38714;53.180;5.812;2022-12-11T03:47:14;62.13;;;30.47;;
52848;SDS011;38714;53.180;5.812;2022-12-11T03:49:43;67.40;;;28.63;;
52848;SDS011;38714;53.180;5.812;2022-12-11T03:52:11;60.33;;;27.10;;
52848;SDS011;38714;53.180;5.812;2022-12-11T03:54:39;94.50;;;31.17;;
52848;SDS011;38714;53.180;5.812;2022-12-11T03:57:07;76.07;;;29.93;;
52848;SDS011;38714;53.180;5.812;2022-12-11T03:59:36;62.10;;;27.97;;
52848;SDS011;38714;53.180;5.812;2022-12-11T04:02:02;77.80;;;30.50;;
52848;SDS011;38714;53.180;5.812;2022-12-11T04:04:35;65.40;;;29.87;;
52848;SDS011;38714;53.180;5.812;2022-12-11T04:07:05;64.77;;;30.20;;
52848;SDS011;38714;53.180;5.812;2022-12-11T04:09:31;73.00;;;29.80;;
52848;SDS011;38714;53.180;5.812;2022-12-11T04:11:57;64.37;;;29.63;;
52848;SDS011;38714;53.180;5.812;2022-12-11T04:14:23;57.80;;;26.57;;
52848;SDS011;38714;53.180;5.812;2022-12-11T04:17:07;62.87;;;27.33;;
52848;SDS011;38714;53.180;5.812;2022-12-11T04:19:32;53.30;;;26.37;;
52848;SDS011;38714;53.180;5.812;2022-12-11T04:22:17;83.13;;;27.07;;
52848;SDS011;38714;53.180;5.812;2022-12-11T04:25:03;56.87;;;26.40;;
52848;SDS011;38714;53.180;5.812;2022-12-11T04:27:30;73.70;;;30.13;;
52848;SDS011;38714;53.180;5.812;2022-12-11T04:30:15;52.53;;;24.43;;
52848;SDS011;38714;53.180;5.812;2022-12-11T04:32:43;55.57;;;28.27;;
52848;SDS011;38714;53.180;5.812;2022-12-11T04:35:09;66.73;;;23.83;;
52848;SDS011;38714;53.180;5.812;2022-12-11T04:37:36;73.00;;;29.07;;
52848;SDS011;38714;53.180;5.812;2022-12-11T04:40:06;68.07;;;28.63;;
52848;SDS011;38714;53.180;5.812;2022-12-11T04:42:34;61.50;;;27.30;;
52848;SDS011;38714;53.180;5.812;2022-12-11T04:44:59;54.53;;;26.37;;
52848;SDS011;38714;53.180;5.812;2022-12-11T04:47:25;49.03;;;24.07;;
52848;SDS011;38714;53.180;5.812;2022-12-11T04:49:51;65.10;;;23.50;;
52848;SDS011;38714;53.180;5.812;2022-12-11T04:52:17;54.90;;;24.20;;
52848;SDS011;38714;53.180;5.812;2022-12-11T04:54:43;61.57;;;22.77;;
52848;SDS011;38714;53.180;5.812;2022-12-11T04:57:09;60.47;;;26.10;;
52848;SDS011;38714;53.180;5.812;2022-12-11T04:59:34;63.13;;;26.87;;
52848;SDS011;38714;53.180;5.812;2022-12-11T05:02:01;45.20;;;24.03;;
52848;SDS011;38714;53.180;5.812;2022-12-11T05:04:31;69.77;;;27.40;;
52848;SDS011;38714;53.180;5.812;2022-12-11T05:06:59;50.53;;;21.70;;
52848;SDS011;38714;53.180;5.812;2022-12-11T05:09:26;66.07;;;25.53;;
52848;SDS011;38714;53.180;5.812;2022-12-11T05:11:52;62.90;;;24.33;;
52848;SDS011;38714;53.180;5.812;2022-12-11T05:14:18;58.80;;;27.87;;
52848;SDS011;38714;53.180;5.812;2022-12-11T05:16:43;50.43;;;22.43;;
52848;SDS011;38714;53.180;5.812;2022-12-11T05:19:09;46.63;;;21.43;;
52848;SDS011;38714;53.180;5.812;2022-12-11T05:21:34;74.90;;;26.80;;
52848;SDS011;38714;53.180;5.812;2022-12-11T05:24:00;56.03;;;25.07;;
52848;SDS011;38714;53.180;5.812;2022-12-11T05:26:26;42.87;;;21.67;;
52848;SDS011;38714;53.180;5.812;2022-12-11T05:28:52;59.07;;;29.53;;
52848;SDS011;38714;53.180;5.812;2022-12-11T05:31:23;50.00;;;23.20;;
52848;SDS011;38714;53.180;5.812;2022-12-11T05:33:50;56.77;;;24.00;;
52848;SDS011;38714;53.180;5.812;2022-12-11T05:36:18;49.83;;;22.63;;
52848;SDS011;38714;53.180;5.812;2022-12-11T05:38:46;61.30;;;25.67;;
52848;SDS011;38714;53.180;5.812;2022-12-11T05:41:14;54.30;;;22.53;;
52848;SDS011;38714;53.180;5.812;2022-12-11T05:43:42;42.77;;;22.90;;
52848;SDS011;38714;53.180;5.812;2022-12-11T05:46:15;71.53;;;27.73;;
52848;SDS011;38714;53.180;5.812;2022-12-11T05:48:46;38.70;;;19.13;;
52848;SDS011;38714;53.180;5.812;2022-12-11T05:51:13;48.27;;;24.10;;
52848;SDS011;38714;53.180;5.812;2022-12-11T05:53:40;62.60;;;24.67;;
52848;SDS011;38714;53.180;5.812;2022-12-11T05:56:07;48.23;;;21.20;;
52848;SDS011;38714;53.180;5.812;2022-12-11T05:58:36;48.57;;;22.40;;
52848;SDS011;38714;53.180;5.812;2022-12-11T06:01:06;46.73;;;23.33;;
52848;SDS011;38714;53.180;5.812;2022-12-11T06:03:34;40.88;;;23.05;;
52848;SDS011;38714;53.180;5.812;2022-12-11T06:06:00;40.60;;;22.00;;
52848;SDS011;38714;53.180;5.812;2022-12-11T06:08:27;38.43;;;21.73;;
52848;SDS011;38714;53.180;5.812;2022-12-11T06:10:52;48.60;;;24.57;;
52848;SDS011;38714;53.180;5.812;2022-12-11T06:13:18;41.93;;;21.37;;
52848;SDS011;38714;53.180;5.812;2022-12-11T06:15:43;55.10;;;23.73;;
52848;SDS011;38714;53.180;5.812;2022-12-11T06:18:09;45.87;;;21.60;;
52848;SDS011;38714;53.180;5.812;2022-12-11T06:20:35;52.50;;;21.90;;
52848;SDS011;38714;53.180;5.812;2022-12-11T06:23:01;43.40;;;18.27;;
52848;SDS011;38714;53.180;5.812;2022-12-11T06:25:26;36.60;;;20.13;;
52848;SDS011;38714;53.180;5.812;2022-12-11T06:27:53;50.10;;;24.80;;
52848;SDS011;38714;53.180;5.812;2022-12-11T06:30:18;61.00;;;25.87;;
52848;SDS011;38714;53.180;5.812;2022-12-11T06:32:44;50.93;;;24.73;;
52848;SDS011;38714;53.180;5.812;2022-12-11T06:35:10;48.27;;;21.53;;
52848;SDS011;38714;53.180;5.812;2022-12-11T06:37:37;58.00;;;25.80;;
52848;SDS011;38714;53.180;5.812;2022-12-11T06:40:03;55.23;;;24.97;;
52848;SDS011;38714;53.180;5.812;2022-12-11T06:42:30;53.47;;;21.77;;
52848;SDS011;38714;53.180;5.812;2022-12-11T06:44:55;56.07;;;23.83;;
52848;SDS011;38714;53.180;5.812;2022-12-11T06:47:24;41.00;;;20.83;;
52848;SDS011;38714;53.180;5.812;2022-12-11T06:49:53;59.57;;;24.87;;
52848;SDS011;38714;53.180;5.812;2022-12-11T06:52:20;50.17;;;21.87;;
52848;SDS011;38714;53.180;5.812;2022-12-11T06:54:49;37.83;;;18.43;;
52848;SDS011;38714;53.180;5.812;2022-12-11T06:57:15;50.00;;;21.33;;
52848;SDS011;38714;53.180;5.812;2022-12-11T06:59:42;42.23;;;20.80;;
52848;SDS011;38714;53.180;5.812;2022-12-11T07:02:11;63.80;;;25.97;;
52848;SDS011;38714;53.180;5.812;2022-12-11T07:04:38;44.87;;;20.67;;
52848;SDS011;38714;53.180;5.812;2022-12-11T07:07:04;41.93;;;20.53;;
52848;SDS011;38714;53.180;5.812;2022-12-11T07:09:30;59.03;;;23.70;;
52848;SDS011;38714;53.180;5.812;2022-12-11T07:11:55;35.40;;;17.10;;
52848;SDS011;38714;53.180;5.812;2022-12-11T07:14:21;41.13;;;22.50;;
52848;SDS011;38714;53.180;5.812;2022-12-11T07:16:47;48.80;;;23.50;;
52848;SDS011;38714;53.180;5.812;2022-12-11T07:19:12;50.23;;;20.27;;
52848;SDS011;38714;53.180;5.812;2022-12-11T07:21:38;44.33;;;21.27;;
52848;SDS011;38714;53.180;5.812;2022-12-11T07:24:03;52.80;;;21.47;;
52848;SDS011;38714;53.180;5.812;2022-12-11T07:26:29;45.20;;;21.93;;
52848;SDS011;38714;53.180;5.812;2022-12-11T07:28:55;39.70;;;22.00;;
52848;SDS011;38714;53.180;5.812;2022-12-11T07:31:23;45.50;;;20.30;;
52848;SDS011;38714;53.180;5.812;2022-12-11T07:33:53;46.07;;;20.37;;
52848;SDS011;38714;53.180;5.812;2022-12-11T07:36:20;53.83;;;20.97;;
52848;SDS011;38714;53.180;5.812;2022-12-11T07:38:46;48.23;;;23.23;;
52848;SDS011;38714;53.180;5.812;2022-12-11T07:41:12;45.17;;;22.00;;
52848;SDS011;38714;53.180;5.812;2022-12-11T07:43:39;50.13;;;22.77;;
52848;SDS011;38714;53.180;5.812;2022-12-11T07:46:07;67.77;;;22.23;;
52848;SDS011;38714;53.180;5.812;2022-12-11T07:48:38;63.35;;;23.95;;
52848;SDS011;38714;53.180;5.812;2022-12-11T07:51:09;49.23;;;23.53;;
52848;SDS011;38714;53.180;5.812;2022-12-11T07:53:39;45.60;;;22.23;;
52848;SDS011;38714;53.180;5.812;2022-12-11T07:56:07;47.50;;;24.53;;
52848;SDS011;38714;53.180;5.812;2022-12-11T07:58:33;59.60;;;24.27;;
52848;SDS011;38714;53.180;5.812;2022-12-11T08:00:59;49.17;;;23.73;;
52848;SDS011;38714;53.180;5.812;2022-12-11T08:03:25;53.43;;;25.60;;
52848;SDS011;38714;53.180;5.812;2022-12-11T08:05:51;49.13;;;24.27;;
52848;SDS011;38714;53.180;5.812;2022-12-11T08:08:17;55.10;;;22.63;;
52848;SDS011;38714;53.180;5.812;2022-12-11T08:10:44;51.80;;;26.30;;
52848;SDS011;38714;53.180;5.812;2022-12-11T08:13:10;58.23;;;25.83;;
52848;SDS011;38714;53.180;5.812;2022-12-11T08:15:35;50.13;;;24.10;;
52848;SDS011;38714;53.180;5.812;2022-12-11T08:18:01;59.13;;;25.67;;
52848;SDS011;38714;53.180;5.812;2022-12-11T08:20:27;48.63;;;23.30;;
52848;SDS011;38714;53.180;5.812;2022-12-11T08:22:52;56.40;;;23.53;;
52848;SDS011;38714;53.180;5.812;2022-12-11T08:25:18;53.50;;;26.47;;
52848;SDS011;38714;53.180;5.812;2022-12-11T08:27:44;40.47;;;21.43;;
52848;SDS011;38714;53.180;5.812;2022-12-11T08:30:09;48.00;;;22.00;;
52848;SDS011;38714;53.180;5.812;2022-12-11T08:32:35;44.30;;;21.00;;
52848;SDS011;38714;53.180;5.812;2022-12-11T08:35:01;50.35;;;22.77;;
52848;SDS011;38714;53.180;5.812;2022-12-11T08:37:27;45.67;;;23.87;;
52848;SDS011;38714;53.180;5.812;2022-12-11T08:39:53;74.23;;;25.23;;
52848;SDS011;38714;53.180;5.812;2022-12-11T08:42:19;41.28;;;20.42;;
52848;SDS011;38714;53.180;5.812;2022-12-11T08:44:45;43.30;;;24.00;;
52848;SDS011;38714;53.180;5.812;2022-12-11T08:47:10;38.63;;;24.13;;
52848;SDS011;38714;53.180;5.812;2022-12-11T08:49:36;51.50;;;22.40;;
52848;SDS011;38714;53.180;5.812;2022-12-11T08:52:02;47.17;;;24.50;;
52848;SDS011;38714;53.180;5.812;2022-12-11T08:54:28;50.57;;;21.33;;
52848;SDS011;38714;53.180;5.812;2022-12-11T08:56:54;62.97;;;22.83;;
52848;SDS011;38714;53.180;5.812;2022-12-11T08:59:19;35.07;;;21.23;;
52848;SDS011;38714;53.180;5.812;2022-12-11T09:01:45;40.63;;;22.42;;
52848;SDS011;38714;53.180;5.812;2022-12-11T09:04:11;41.60;;;21.57;;
52848;SDS011;38714;53.180;5.812;2022-12-11T09:06:36;48.13;;;23.60;;
52848;SDS011;38714;53.180;5.812;2022-12-11T09:09:02;47.00;;;23.03;;
52848;SDS011;38714;53.180;5.812;2022-12-11T09:11:30;49.87;;;24.27;;
52848;SDS011;38714;53.180;5.812;2022-12-11T09:13:57;42.07;;;22.53;;
52848;SDS011;38714;53.180;5.812;2022-12-11T09:16:24;48.90;;;26.57;;
52848;SDS011;38714;53.180;5.812;2022-12-11T09:18:51;44.00;;;21.20;;
52848;SDS011;38714;53.180;5.812;2022-12-11T09:21:20;46.57;;;22.00;;
52848;SDS011;38714;53.180;5.812;2022-12-11T09:23:47;38.07;;;21.03;;
52848;SDS011;38714;53.180;5.812;2022-12-11T09:26:14;48.27;;;24.13;;
52848;SDS011;38714;53.180;5.812;2022-12-11T09:28:42;40.03;;;20.75;;
52848;SDS011;38714;53.180;5.812;2022-12-11T09:31:09;38.13;;;21.63;;
52848;SDS011;38714;53.180;5.812;2022-12-11T09:33:35;38.83;;;19.83;;
52848;SDS011;38714;53.180;5.812;2022-12-11T09:36:01;45.17;;;20.80;;
52848;SDS011;38714;53.180;5.812;2022-12-11T09:38:28;41.03;;;23.03;;
52848;SDS011;38714;53.180;5.812;2022-12-11T09:40:55;46.80;;;22.07;;
52848;SDS011;38714;53.180;5.812;2022-12-11T09:43:31;47.13;;;23.47;;
52848;SDS011;38714;53.180;5.812;2022-12-11T09:46:11;35.63;;;20.83;;
52848;SDS011;38714;53.180;5.812;2022-12-11T09:48:39;57.07;;;21.73;;
52848;SDS011;38714;53.180;5.812;2022-12-11T09:51:22;35.80;;;21.10;;
52848;SDS011;38714;53.180;5.812;2022-12-11T09:53:52;36.17;;;19.43;;
52848;SDS011;38714;53.180;5.812;2022-12-11T09:59:17;39.38;;;21.65;;
52848;SDS011;38714;53.180;5.812;2022-12-11T10:02:16;38.58;;;18.77;;
52848;SDS011;38714;53.180;5.812;2022-12-11T10:08:19;33.58;;;17.23;;
52848;SDS011;38714;53.180;5.812;2022-12-11T10:11:07;28.93;;;18.83;;
52848;SDS011;38714;53.180;5.812;2022-12-11T10:19:11;33.03;;;17.43;;
52848;SDS011;38714;53.180;5.812;2022-12-11T10:21:42;27.93;;;17.03;;
52848;SDS011;38714;53.180;5.812;2022-12-11T10:24:11;35.03;;;17.60;;
52848;SDS011;38714;53.180;5.812;2022-12-11T10:26:46;27.90;;;14.33;;
52848;SDS011;38714;53.180;5.812;2022-12-11T10:29:12;26.90;;;17.10;;
52848;SDS011;38714;53.180;5.812;2022-12-11T10:31:49;37.00;;;18.97;;
52848;SDS011;38714;53.180;5.812;2022-12-11T10:34:23;33.50;;;17.98;;
52848;SDS011;38714;53.180;5.812;2022-12-11T10:37:06;31.75;;;18.65;;
52848;SDS011;38714;53.180;5.812;2022-12-11T10:39:31;26.50;;;14.65;;
52848;SDS011;38714;53.180;5.812;2022-12-11T10:41:57;34.93;;;19.57;;
52848;SDS011;38714;53.180;5.812;2022-12-11T10:44:27;34.50;;;19.10;;
52848;SDS011;38714;53.180;5.812;2022-12-11T10:47:13;24.98;;;15.15;;
52848;SDS011;38714;53.180;5.812;2022-12-11T10:49:51;34.40;;;18.43;;
52848;SDS011;38714;53.180;5.812;2022-12-11T10:52:19;35.63;;;20.15;;
52848;SDS011;38714;53.180;5.812;2022-12-11T10:54:53;36.22;;;19.52;;
52848;SDS011;38714;53.180;5.812;2022-12-11T10:57:31;29.40;;;19.13;;
52848;SDS011;38714;53.180;5.812;2022-12-11T10:59:59;37.65;;;20.70;;
52848;SDS011;38714;53.180;5.812;2022-12-11T11:02:38;39.03;;;20.10;;
52848;SDS011;38714;53.180;5.812;2022-12-11T11:05:12;34.28;;;17.45;;
52848;SDS011;38714;53.180;5.812;2022-12-11T11:08:01;30.40;;;17.53;;
52848;SDS011;38714;53.180;5.812;2022-12-11T11:10:57;43.13;;;20.08;;
52848;SDS011;38714;53.180;5.812;2022-12-11T11:13:26;43.72;;;20.02;;
52848;SDS011;38714;53.180;5.812;2022-12-11T11:16:11;37.97;;;19.87;;
52848;SDS011;38714;53.180;5.812;2022-12-11T11:18:39;45.43;;;23.23;;
52848;SDS011;38714;53.180;5.812;2022-12-11T11:21:06;32.22;;;18.85;;
52848;SDS011;38714;53.180;5.812;2022-12-11T11:23:40;43.08;;;20.02;;
52848;SDS011;38714;53.180;5.812;2022-12-11T11:26:06;34.72;;;18.08;;
52848;SDS011;38714;53.180;5.812;2022-12-11T11:28:34;36.10;;;20.20;;
52848;SDS011;38714;53.180;5.812;2022-12-11T11:31:07;28.90;;;19.42;;
52848;SDS011;38714;53.180;5.812;2022-12-11T11:33:35;38.72;;;19.55;;
52848;SDS011;38714;53.180;5.812;2022-12-11T11:36:19;27.23;;;18.92;;
52848;SDS011;38714;53.180;5.812;2022-12-11T11:38:49;36.42;;;19.35;;
52848;SDS011;38714;53.180;5.812;2022-12-11T11:44:18;37.58;;;19.00;;
52848;SDS011;38714;53.180;5.812;2022-12-11T11:49:59;39.33;;;18.85;;
52848;SDS011;38714;53.180;5.812;2022-12-11T11:52:56;43.95;;;18.80;;
52848;SDS011;38714;53.180;5.812;2022-12-11T11:55:39;31.23;;;16.00;;
52848;SDS011;38714;53.180;5.812;2022-12-11T11:58:14;33.05;;;18.38;;
52848;SDS011;38714;53.180;5.812;2022-12-11T12:00:47;33.08;;;15.95;;
52848;SDS011;38714;53.180;5.812;2022-12-11T12:03:15;28.60;;;19.77;;
52848;SDS011;38714;53.180;5.812;2022-12-11T12:06:03;38.90;;;18.93;;
52848;SDS011;38714;53.180;5.812;2022-12-11T12:08:41;32.53;;;16.90;;
52848;SDS011;38714;53.180;5.812;2022-12-11T12:21:39;30.40;;;18.00;;
52848;SDS011;38714;53.180;5.812;2022-12-11T12:24:14;32.38;;;17.83;;
52848;SDS011;38714;53.180;5.812;2022-12-11T12:27:09;32.58;;;17.05;;
52848;SDS011;38714;53.180;5.812;2022-12-11T12:30:30;30.50;;;18.40;;
52848;SDS011;38714;53.180;5.812;2022-12-11T12:38:06;39.92;;;20.83;;
52848;SDS011;38714;53.180;5.812;2022-12-11T12:40:45;27.48;;;16.23;;
52848;SDS011;38714;53.180;5.812;2022-12-11T12:48:47;25.90;;;19.48;;
52848;SDS011;38714;53.180;5.812;2022-12-11T12:51:14;25.73;;;16.65;;
52848;SDS011;38714;53.180;5.812;2022-12-11T12:53:43;28.38;;;17.48;;
52848;SDS011;38714;53.180;5.812;2022-12-11T12:56:13;26.33;;;15.55;;
52848;SDS011;38714;53.180;5.812;2022-12-11T12:58:42;24.67;;;17.30;;
52848;SDS011;38714;53.180;5.812;2022-12-11T13:01:18;24.20;;;16.98;;
52848;SDS011;38714;53.180;5.812;2022-12-11T13:09:11;30.05;;;16.45;;
52848;SDS011;38714;53.180;5.812;2022-12-11T13:11:42;24.13;;;16.40;;
52848;SDS011;38714;53.180;5.812;2022-12-11T13:16:41;29.48;;;19.02;;
52848;SDS011;38714;53.180;5.812;2022-12-11T13:22:01;26.70;;;15.05;;
52848;SDS011;38714;53.180;5.812;2022-12-11T13:27:26;31.27;;;17.88;;
52848;SDS011;38714;53.180;5.812;2022-12-11T13:35:28;29.15;;;17.08;;
52848;SDS011;38714;53.180;5.812;2022-12-11T13:37:54;22.50;;;14.27;;
52848;SDS011;38714;53.180;5.812;2022-12-11T13:40:27;29.38;;;15.05;;
52848;SDS011;38714;53.180;5.812;2022-12-11T13:43:14;22.67;;;16.05;;
52848;SDS011;38714;53.180;5.812;2022-12-11T13:48:24;26.55;;;13.88;;
52848;SDS011;38714;53.180;5.812;2022-12-11T13:50:53;23.38;;;16.52;;
52848;SDS011;38714;53.180;5.812;2022-12-11T13:53:20;20.23;;;11.88;;
52848;SDS011;38714;53.180;5.812;2022-12-11T13:56:04;23.67;;;15.45;;
52848;SDS011;38714;53.180;5.812;2022-12-11T13:58:35;26.42;;;17.23;;
52848;SDS011;38714;53.180;5.812;2022-12-11T14:01:07;30.30;;;16.80;;
52848;SDS011;38714;53.180;5.812;2022-12-11T14:03:40;26.13;;;16.00;;
52848;SDS011;38714;53.180;5.812;2022-12-11T14:06:12;25.33;;;14.20;;
52848;SDS011;38714;53.180;5.812;2022-12-11T14:08:39;25.83;;;14.88;;
52848;SDS011;38714;53.180;5.812;2022-12-11T14:11:11;23.92;;;15.32;;
52848;SDS011;38714;53.180;5.812;2022-12-11T14:13:46;29.05;;;17.08;;
52848;SDS011;38714;53.180;5.812;2022-12-11T14:16:21;25.58;;;12.95;;
52848;SDS011;38714;53.180;5.812;2022-12-11T14:18:49;22.92;;;14.77;;
52848;SDS011;38714;53.180;5.812;2022-12-11T14:21:17;22.05;;;13.32;;
52848;SDS011;38714;53.180;5.812;2022-12-11T14:23:54;25.33;;;16.95;;
52848;SDS011;38714;53.180;5.812;2022-12-11T14:26:23;27.47;;;14.93;;
52848;SDS011;38714;53.180;5.812;2022-12-11T14:28:50;28.15;;;16.17;;
52848;SDS011;38714;53.180;5.812;2022-12-11T14:31:17;24.83;;;15.33;;
52848;SDS011;38714;53.180;5.812;2022-12-11T14:34:00;32.03;;;20.15;;
52848;SDS011;38714;53.180;5.812;2022-12-11T14:36:31;24.43;;;16.33;;
52848;SDS011;38714;53.180;5.812;2022-12-11T14:39:03;25.58;;;15.02;;
52848;SDS011;38714;53.180;5.812;2022-12-11T14:44:27;33.38;;;17.48;;
52848;SDS011;38714;53.180;5.812;2022-12-11T14:46:57;32.80;;;17.00;;
52848;SDS011;38714;53.180;5.812;2022-12-11T14:49:45;24.23;;;14.15;;
52848;SDS011;38714;53.180;5.812;2022-12-11T14:52:18;27.90;;;16.27;;
52848;SDS011;38714;53.180;5.812;2022-12-11T14:54:52;26.85;;;18.42;;
52848;SDS011;38714;53.180;5.812;2022-12-11T14:57:24;25.10;;;17.05;;
52848;SDS011;38714;53.180;5.812;2022-12-11T14:59:53;28.77;;;17.80;;
52848;SDS011;38714;53.180;5.812;2022-12-11T15:05:09;26.75;;;16.73;;
52848;SDS011;38714;53.180;5.812;2022-12-11T15:07:36;17.25;;;13.00;;
52848;SDS011;38714;53.180;5.812;2022-12-11T15:10:03;25.27;;;15.87;;
52848;SDS011;38714;53.180;5.812;2022-12-11T15:12:29;27.20;;;16.97;;
52848;SDS011;38714;53.180;5.812;2022-12-11T15:14:57;23.77;;;16.00;;
52848;SDS011;38714;53.180;5.812;2022-12-11T15:17:26;21.17;;;15.25;;
52848;SDS011;38714;53.180;5.812;2022-12-11T15:20:00;28.45;;;16.17;;
52848;SDS011;38714;53.180;5.812;2022-12-11T15:22:30;26.50;;;16.33;;
52848;SDS011;38714;53.180;5.812;2022-12-11T15:24:56;32.72;;;19.88;;
52848;SDS011;38714;53.180;5.812;2022-12-11T15:29:48;22.65;;;13.15;;
52848;SDS011;38714;53.180;5.812;2022-12-11T15:32:15;28.25;;;17.77;;
52848;SDS011;38714;53.180;5.812;2022-12-11T15:37:18;28.80;;;14.53;;
52848;SDS011;38714;53.180;5.812;2022-12-11T15:39:48;27.67;;;15.05;;
52848;SDS011;38714;53.180;5.812;2022-12-11T15:42:15;29.08;;;16.77;;
52848;SDS011;38714;53.180;5.812;2022-12-11T15:44:48;28.08;;;16.00;;
52848;SDS011;38714;53.180;5.812;2022-12-11T15:47:14;24.52;;;14.38;;
52848;SDS011;38714;53.180;5.812;2022-12-11T15:49:44;21.53;;;14.70;;
52848;SDS011;38714;53.180;5.812;2022-12-11T15:52:10;24.90;;;14.23;;
52848;SDS011;38714;53.180;5.812;2022-12-11T15:54:35;17.83;;;13.93;;
52848;SDS011;38714;53.180;5.812;2022-12-11T15:57:02;24.93;;;13.60;;
52848;SDS011;38714;53.180;5.812;2022-12-11T15:59:30;17.13;;;13.90;;
52848;SDS011;38714;53.180;5.812;2022-12-11T16:01:57;21.87;;;12.47;;
52848;SDS011;38714;53.180;5.812;2022-12-11T16:04:22;20.67;;;14.05;;
52848;SDS011;38714;53.180;5.812;2022-12-11T16:06:48;22.27;;;13.27;;
52848;SDS011;38714;53.180;5.812;2022-12-11T16:09:15;23.33;;;14.73;;
52848;SDS011;38714;53.180;5.812;2022-12-11T16:11:41;17.92;;;13.48;;